sensor_id;sensor_type;location;lat;lon;timestamp;P1;durP1;ratioP1;P2;durP2;ratioP2
13868;SDS011;7004;48.206;16.402;2022-11-15T00:00:53;99.60;;;39.63;;
13868;SDS011;7004;48.206;16.402;2022-11-15T00:03:20;91.63;;;41.10;;
13868;SDS011;7004;48.206;16.402;2022-11-15T00:05:51;92.33;;;40.10;;
13868;SDS011;7004;48.206;16.402;2022-11-15T00:08:17;91.20;;;39.70;;
13868;SDS011;7004;48.206;16.402;2022-11-15T00:10:53;82.30;;;38.37;;
13868;SDS011;7004;48.206;16.402;2022-11-15T00:13:24;90.37;;;39.87;;
13868;SDS011;7004;48.206;16.402;2022-11-15T00:15:51;101.87;;;40.93;;
13868;SDS011;7004;48.206;16.402;2022-11-15T00:18:17;90.70;;;40.23;;
13868;SDS011;7004;48.206;16.402;2022-11-15T00:20:44;103.77;;;39.87;;
13868;SDS011;7004;48.206;16.402;2022-11-15T00:23:11;108.70;;;45.47;;
13868;SDS011;7004;48.206;16.402;2022-11-15T00:25:37;95.97;;;41.47;;
13868;SDS011;7004;48.206;16.402;2022-11-15T00:28:04;93.23;;;39.50;;
13868;SDS011;7004;48.206;16.402;2022-11-15T00:30:30;99.97;;;40.83;;
13868;SDS011;7004;48.206;16.402;2022-11-15T00:33:00;96.47;;;39.67;;
13868;SDS011;7004;48.206;16.402;2022-11-15T00:35:31;102.57;;;40.90;;
13868;SDS011;7004;48.206;16.402;2022-11-15T00:37:59;102.17;;;40.13;;
13868;SDS011;7004;48.206;16.402;2022-11-15T00:40:26;102.03;;;39.87;;
13868;SDS011;7004;48.206;16.402;2022-11-15T00:42:52;104.23;;;41.10;;
13868;SDS011;7004;48.206;16.402;2022-11-15T00:45:18;101.67;;;40.20;;
13868;SDS011;7004;48.206;16.402;2022-11-15T00:47:45;99.17;;;37.80;;
13868;SDS011;7004;48.206;16.402;2022-11-15T00:50:12;100.43;;;40.50;;
13868;SDS011;7004;48.206;16.402;2022-11-15T00:52:38;105.00;;;39.93;;
13868;SDS011;7004;48.206;16.402;2022-11-15T00:55:05;103.57;;;39.40;;
13868;SDS011;7004;48.206;16.402;2022-11-15T00:57:31;109.83;;;41.77;;
13868;SDS011;7004;48.206;16.402;2022-11-15T00:59:58;105.00;;;40.87;;
13868;SDS011;7004;48.206;16.402;2022-11-15T01:02:24;103.60;;;39.60;;
13868;SDS011;7004;48.206;16.402;2022-11-15T01:04:50;101.33;;;40.00;;
13868;SDS011;7004;48.206;16.402;2022-11-15T01:07:16;99.67;;;41.43;;
13868;SDS011;7004;48.206;16.402;2022-11-15T01:09:42;104.37;;;41.07;;
13868;SDS011;7004;48.206;16.402;2022-11-15T01:12:08;95.50;;;39.23;;
13868;SDS011;7004;48.206;16.402;2022-11-15T01:14:34;97.10;;;39.43;;
13868;SDS011;7004;48.206;16.402;2022-11-15T01:17:01;98.40;;;39.67;;
13868;SDS011;7004;48.206;16.402;2022-11-15T01:19:27;98.03;;;41.43;;
13868;SDS011;7004;48.206;16.402;2022-11-15T01:21:53;90.57;;;38.13;;
13868;SDS011;7004;48.206;16.402;2022-11-15T01:24:19;89.47;;;38.13;;
13868;SDS011;7004;48.206;16.402;2022-11-15T01:26:45;82.40;;;37.37;;
13868;SDS011;7004;48.206;16.402;2022-11-15T01:29:11;85.53;;;36.03;;
13868;SDS011;7004;48.206;16.402;2022-11-15T01:31:37;87.53;;;37.23;;
13868;SDS011;7004;48.206;16.402;2022-11-15T01:34:04;84.43;;;36.03;;
13868;SDS011;7004;48.206;16.402;2022-11-15T01:36:30;89.30;;;37.90;;
13868;SDS011;7004;48.206;16.402;2022-11-15T01:38:56;92.17;;;36.50;;
13868;SDS011;7004;48.206;16.402;2022-11-15T01:41:25;84.53;;;35.00;;
13868;SDS011;7004;48.206;16.402;2022-11-15T01:44:29;81.33;;;36.33;;
13868;SDS011;7004;48.206;16.402;2022-11-15T01:46:59;78.93;;;35.17;;
13868;SDS011;7004;48.206;16.402;2022-11-15T01:49:37;76.07;;;35.70;;
13868;SDS011;7004;48.206;16.402;2022-11-15T01:52:12;82.57;;;36.33;;
13868;SDS011;7004;48.206;16.402;2022-11-15T01:54:43;79.93;;;35.57;;
13868;SDS011;7004;48.206;16.402;2022-11-15T01:57:10;80.87;;;37.10;;
13868;SDS011;7004;48.206;16.402;2022-11-15T01:59:39;76.67;;;34.73;;
13868;SDS011;7004;48.206;16.402;2022-11-15T02:02:08;84.67;;;36.23;;
13868;SDS011;7004;48.206;16.402;2022-11-15T02:04:39;75.70;;;34.57;;
13868;SDS011;7004;48.206;16.402;2022-11-15T02:07:16;81.87;;;34.87;;
13868;SDS011;7004;48.206;16.402;2022-11-15T02:09:45;73.17;;;33.50;;
13868;SDS011;7004;48.206;16.402;2022-11-15T02:12:13;78.20;;;34.03;;
13868;SDS011;7004;48.206;16.402;2022-11-15T02:14:45;81.03;;;35.03;;
13868;SDS011;7004;48.206;16.402;2022-11-15T02:17:32;84.30;;;36.27;;
13868;SDS011;7004;48.206;16.402;2022-11-15T02:20:50;83.87;;;39.57;;
13868;SDS011;7004;48.206;16.402;2022-11-15T02:23:55;81.57;;;36.43;;
13868;SDS011;7004;48.206;16.402;2022-11-15T02:38:04;85.93;;;36.83;;
13868;SDS011;7004;48.206;16.402;2022-11-15T02:41:36;83.27;;;35.60;;
13868;SDS011;7004;48.206;16.402;2022-11-15T02:44:16;76.37;;;35.03;;
13868;SDS011;7004;48.206;16.402;2022-11-15T02:49:54;80.10;;;34.43;;
13868;SDS011;7004;48.206;16.402;2022-11-15T02:52:25;76.57;;;33.00;;
13868;SDS011;7004;48.206;16.402;2022-11-15T02:54:55;79.20;;;33.60;;
13868;SDS011;7004;48.206;16.402;2022-11-15T03:00:30;73.77;;;34.30;;
13868;SDS011;7004;48.206;16.402;2022-11-15T03:06:04;67.67;;;32.37;;
13868;SDS011;7004;48.206;16.402;2022-11-15T03:11:44;71.07;;;32.90;;
13868;SDS011;7004;48.206;16.402;2022-11-15T03:14:21;75.03;;;34.67;;
13868;SDS011;7004;48.206;16.402;2022-11-15T03:19:53;72.77;;;32.97;;
13868;SDS011;7004;48.206;16.402;2022-11-15T03:22:27;83.07;;;33.53;;
13868;SDS011;7004;48.206;16.402;2022-11-15T03:25:00;74.70;;;33.50;;
13868;SDS011;7004;48.206;16.402;2022-11-15T03:27:33;79.10;;;33.50;;
13868;SDS011;7004;48.206;16.402;2022-11-15T03:30:18;70.40;;;32.87;;
13868;SDS011;7004;48.206;16.402;2022-11-15T03:32:46;75.27;;;33.20;;
13868;SDS011;7004;48.206;16.402;2022-11-15T03:35:22;74.43;;;34.30;;
13868;SDS011;7004;48.206;16.402;2022-11-15T03:40:56;77.03;;;33.13;;
13868;SDS011;7004;48.206;16.402;2022-11-15T03:43:36;75.33;;;33.73;;
13868;SDS011;7004;48.206;16.402;2022-11-15T03:46:40;73.47;;;32.53;;
13868;SDS011;7004;48.206;16.402;2022-11-15T03:49:20;73.53;;;32.63;;
13868;SDS011;7004;48.206;16.402;2022-11-15T03:51:53;74.57;;;31.90;;
13868;SDS011;7004;48.206;16.402;2022-11-15T03:54:23;76.23;;;32.87;;
13868;SDS011;7004;48.206;16.402;2022-11-15T03:56:49;77.83;;;34.13;;
13868;SDS011;7004;48.206;16.402;2022-11-15T03:59:15;77.03;;;33.63;;
13868;SDS011;7004;48.206;16.402;2022-11-15T04:01:42;80.17;;;34.33;;
13868;SDS011;7004;48.206;16.402;2022-11-15T04:04:08;81.87;;;35.97;;
13868;SDS011;7004;48.206;16.402;2022-11-15T04:06:34;86.13;;;34.50;;
13868;SDS011;7004;48.206;16.402;2022-11-15T04:09:00;89.77;;;35.60;;
13868;SDS011;7004;48.206;16.402;2022-11-15T04:11:26;82.73;;;34.57;;
13868;SDS011;7004;48.206;16.402;2022-11-15T04:13:52;87.03;;;36.97;;
13868;SDS011;7004;48.206;16.402;2022-11-15T04:16:19;88.17;;;35.43;;
13868;SDS011;7004;48.206;16.402;2022-11-15T04:18:45;83.70;;;35.60;;
13868;SDS011;7004;48.206;16.402;2022-11-15T04:21:31;93.60;;;38.43;;
13868;SDS011;7004;48.206;16.402;2022-11-15T04:24:15;93.30;;;37.50;;
13868;SDS011;7004;48.206;16.402;2022-11-15T04:26:42;89.40;;;36.53;;
13868;SDS011;7004;48.206;16.402;2022-11-15T04:29:08;94.27;;;37.27;;
13868;SDS011;7004;48.206;16.402;2022-11-15T04:31:53;94.00;;;38.03;;
13868;SDS011;7004;48.206;16.402;2022-11-15T04:34:19;105.33;;;39.03;;
13868;SDS011;7004;48.206;16.402;2022-11-15T04:36:45;101.03;;;37.40;;
13868;SDS011;7004;48.206;16.402;2022-11-15T04:39:30;110.63;;;38.57;;
13868;SDS011;7004;48.206;16.402;2022-11-15T04:41:56;102.70;;;39.63;;
13868;SDS011;7004;48.206;16.402;2022-11-15T04:44:22;108.90;;;39.60;;
13868;SDS011;7004;48.206;16.402;2022-11-15T04:46:48;106.23;;;39.27;;
13868;SDS011;7004;48.206;16.402;2022-11-15T04:49:14;109.43;;;41.27;;
13868;SDS011;7004;48.206;16.402;2022-11-15T04:51:41;105.90;;;40.47;;
13868;SDS011;7004;48.206;16.402;2022-11-15T04:54:07;112.53;;;41.90;;
13868;SDS011;7004;48.206;16.402;2022-11-15T04:56:33;112.27;;;43.13;;
13868;SDS011;7004;48.206;16.402;2022-11-15T04:58:59;112.53;;;41.73;;
13868;SDS011;7004;48.206;16.402;2022-11-15T05:01:25;116.90;;;42.60;;
13868;SDS011;7004;48.206;16.402;2022-11-15T05:03:52;114.70;;;42.63;;
13868;SDS011;7004;48.206;16.402;2022-11-15T05:06:50;115.03;;;41.63;;
13868;SDS011;7004;48.206;16.402;2022-11-15T05:09:17;113.73;;;43.23;;
13868;SDS011;7004;48.206;16.402;2022-11-15T05:11:45;129.70;;;43.43;;
13868;SDS011;7004;48.206;16.402;2022-11-15T05:14:12;119.83;;;43.13;;
13868;SDS011;7004;48.206;16.402;2022-11-15T05:16:38;115.80;;;42.40;;
13868;SDS011;7004;48.206;16.402;2022-11-15T05:19:05;118.00;;;42.27;;
13868;SDS011;7004;48.206;16.402;2022-11-15T05:21:32;115.97;;;43.43;;
13868;SDS011;7004;48.206;16.402;2022-11-15T05:24:00;119.40;;;43.27;;
13868;SDS011;7004;48.206;16.402;2022-11-15T05:26:27;122.07;;;41.17;;
13868;SDS011;7004;48.206;16.402;2022-11-15T05:28:54;122.77;;;41.53;;
13868;SDS011;7004;48.206;16.402;2022-11-15T05:31:22;116.43;;;43.23;;
13868;SDS011;7004;48.206;16.402;2022-11-15T05:33:49;123.90;;;42.77;;
13868;SDS011;7004;48.206;16.402;2022-11-15T05:36:50;114.37;;;41.20;;
13868;SDS011;7004;48.206;16.402;2022-11-15T05:39:11;112.77;;;41.23;;
13868;SDS011;7004;48.206;16.402;2022-11-15T05:41:39;120.57;;;43.27;;
13868;SDS011;7004;48.206;16.402;2022-11-15T05:44:18;109.40;;;41.67;;
13868;SDS011;7004;48.206;16.402;2022-11-15T05:46:47;109.87;;;43.33;;
13868;SDS011;7004;48.206;16.402;2022-11-15T05:49:20;104.87;;;41.70;;
13868;SDS011;7004;48.206;16.402;2022-11-15T05:51:54;118.90;;;42.03;;
13868;SDS011;7004;48.206;16.402;2022-11-15T05:54:21;117.57;;;42.20;;
13868;SDS011;7004;48.206;16.402;2022-11-15T05:56:50;113.87;;;42.33;;
13868;SDS011;7004;48.206;16.402;2022-11-15T05:59:17;126.77;;;44.47;;
13868;SDS011;7004;48.206;16.402;2022-11-15T06:01:43;115.20;;;44.00;;
13868;SDS011;7004;48.206;16.402;2022-11-15T06:04:10;123.40;;;45.67;;
13868;SDS011;7004;48.206;16.402;2022-11-15T06:06:36;131.73;;;41.57;;
13868;SDS011;7004;48.206;16.402;2022-11-15T06:09:02;122.47;;;44.00;;
13868;SDS011;7004;48.206;16.402;2022-11-15T06:11:28;122.77;;;45.07;;
13868;SDS011;7004;48.206;16.402;2022-11-15T06:13:54;120.13;;;43.17;;
13868;SDS011;7004;48.206;16.402;2022-11-15T06:16:22;117.50;;;43.37;;
13868;SDS011;7004;48.206;16.402;2022-11-15T06:18:48;113.93;;;43.60;;
13868;SDS011;7004;48.206;16.402;2022-11-15T06:21:14;113.13;;;44.53;;
13868;SDS011;7004;48.206;16.402;2022-11-15T06:23:40;116.67;;;45.43;;
13868;SDS011;7004;48.206;16.402;2022-11-15T06:26:06;112.80;;;45.77;;
13868;SDS011;7004;48.206;16.402;2022-11-15T06:28:32;110.83;;;41.73;;
13868;SDS011;7004;48.206;16.402;2022-11-15T06:31:03;113.97;;;41.73;;
13868;SDS011;7004;48.206;16.402;2022-11-15T06:33:39;106.27;;;41.10;;
13868;SDS011;7004;48.206;16.402;2022-11-15T06:36:06;108.47;;;40.27;;
13868;SDS011;7004;48.206;16.402;2022-11-15T06:38:38;107.43;;;42.20;;
13868;SDS011;7004;48.206;16.402;2022-11-15T06:41:05;112.60;;;37.60;;
13868;SDS011;7004;48.206;16.402;2022-11-15T06:43:35;104.10;;;37.57;;
13868;SDS011;7004;48.206;16.402;2022-11-15T06:46:02;110.83;;;42.07;;
13868;SDS011;7004;48.206;16.402;2022-11-15T06:48:30;100.40;;;39.57;;
13868;SDS011;7004;48.206;16.402;2022-11-15T06:50:58;107.60;;;40.67;;
13868;SDS011;7004;48.206;16.402;2022-11-15T06:53:27;117.13;;;42.87;;
13868;SDS011;7004;48.206;16.402;2022-11-15T06:55:57;125.30;;;41.60;;
13868;SDS011;7004;48.206;16.402;2022-11-15T06:58:29;109.37;;;42.43;;
13868;SDS011;7004;48.206;16.402;2022-11-15T07:01:00;115.37;;;42.43;;
13868;SDS011;7004;48.206;16.402;2022-11-15T07:03:31;116.30;;;41.77;;
13868;SDS011;7004;48.206;16.402;2022-11-15T07:06:01;113.37;;;41.87;;
13868;SDS011;7004;48.206;16.402;2022-11-15T07:08:28;109.30;;;42.23;;
13868;SDS011;7004;48.206;16.402;2022-11-15T07:10:58;113.07;;;41.40;;
13868;SDS011;7004;48.206;16.402;2022-11-15T07:13:31;107.43;;;41.73;;
13868;SDS011;7004;48.206;16.402;2022-11-15T07:16:01;106.77;;;40.33;;
13868;SDS011;7004;48.206;16.402;2022-11-15T07:18:33;121.73;;;41.70;;
13868;SDS011;7004;48.206;16.402;2022-11-15T07:21:01;116.07;;;42.60;;
13868;SDS011;7004;48.206;16.402;2022-11-15T07:23:32;116.53;;;40.43;;
13868;SDS011;7004;48.206;16.402;2022-11-15T07:26:02;107.87;;;40.57;;
13868;SDS011;7004;48.206;16.402;2022-11-15T07:28:28;119.27;;;42.53;;
13868;SDS011;7004;48.206;16.402;2022-11-15T07:30:54;122.27;;;40.60;;
13868;SDS011;7004;48.206;16.402;2022-11-15T07:33:20;116.60;;;42.40;;
13868;SDS011;7004;48.206;16.402;2022-11-15T07:35:47;118.07;;;43.23;;
13868;SDS011;7004;48.206;16.402;2022-11-15T07:38:16;119.53;;;41.40;;
13868;SDS011;7004;48.206;16.402;2022-11-15T07:40:46;125.77;;;42.30;;
13868;SDS011;7004;48.206;16.402;2022-11-15T07:43:12;115.23;;;42.83;;
13868;SDS011;7004;48.206;16.402;2022-11-15T07:45:42;112.40;;;42.27;;
13868;SDS011;7004;48.206;16.402;2022-11-15T07:48:10;113.10;;;41.50;;
13868;SDS011;7004;48.206;16.402;2022-11-15T07:50:37;111.13;;;43.17;;
13868;SDS011;7004;48.206;16.402;2022-11-15T07:53:07;127.13;;;42.53;;
13868;SDS011;7004;48.206;16.402;2022-11-15T07:55:35;111.67;;;42.27;;
13868;SDS011;7004;48.206;16.402;2022-11-15T07:58:06;126.40;;;43.03;;
13868;SDS011;7004;48.206;16.402;2022-11-15T08:00:36;132.87;;;43.43;;
13868;SDS011;7004;48.206;16.402;2022-11-15T08:03:04;109.90;;;42.67;;
13868;SDS011;7004;48.206;16.402;2022-11-15T08:05:32;118.57;;;44.67;;
13868;SDS011;7004;48.206;16.402;2022-11-15T08:07:59;123.50;;;43.33;;
13868;SDS011;7004;48.206;16.402;2022-11-15T08:10:26;118.17;;;43.97;;
13868;SDS011;7004;48.206;16.402;2022-11-15T08:12:57;113.80;;;42.87;;
13868;SDS011;7004;48.206;16.402;2022-11-15T08:15:31;121.77;;;43.03;;
13868;SDS011;7004;48.206;16.402;2022-11-15T08:18:00;117.10;;;43.27;;
13868;SDS011;7004;48.206;16.402;2022-11-15T08:20:29;121.57;;;44.30;;
13868;SDS011;7004;48.206;16.402;2022-11-15T08:23:00;120.77;;;44.03;;
13868;SDS011;7004;48.206;16.402;2022-11-15T08:25:30;123.00;;;43.63;;
13868;SDS011;7004;48.206;16.402;2022-11-15T08:27:59;140.13;;;45.47;;
13868;SDS011;7004;48.206;16.402;2022-11-15T08:30:34;115.07;;;43.97;;
13868;SDS011;7004;48.206;16.402;2022-11-15T08:33:09;116.07;;;43.93;;
13868;SDS011;7004;48.206;16.402;2022-11-15T08:35:38;114.63;;;41.83;;
13868;SDS011;7004;48.206;16.402;2022-11-15T08:38:08;118.03;;;42.70;;
13868;SDS011;7004;48.206;16.402;2022-11-15T08:40:35;116.53;;;43.20;;
13868;SDS011;7004;48.206;16.402;2022-11-15T08:43:02;128.13;;;44.33;;
13868;SDS011;7004;48.206;16.402;2022-11-15T08:45:29;115.60;;;43.60;;
13868;SDS011;7004;48.206;16.402;2022-11-15T08:47:56;126.63;;;44.47;;
13868;SDS011;7004;48.206;16.402;2022-11-15T08:50:22;120.53;;;43.93;;
13868;SDS011;7004;48.206;16.402;2022-11-15T08:52:48;114.90;;;44.30;;
13868;SDS011;7004;48.206;16.402;2022-11-15T08:55:15;112.97;;;43.27;;
13868;SDS011;7004;48.206;16.402;2022-11-15T08:57:41;127.23;;;45.23;;
13868;SDS011;7004;48.206;16.402;2022-11-15T09:00:07;118.37;;;42.60;;
13868;SDS011;7004;48.206;16.402;2022-11-15T09:02:34;134.77;;;43.33;;
13868;SDS011;7004;48.206;16.402;2022-11-15T09:05:02;122.40;;;44.20;;
13868;SDS011;7004;48.206;16.402;2022-11-15T09:07:29;120.73;;;45.00;;
13868;SDS011;7004;48.206;16.402;2022-11-15T09:09:57;115.47;;;43.57;;
13868;SDS011;7004;48.206;16.402;2022-11-15T09:12:23;120.07;;;43.20;;
13868;SDS011;7004;48.206;16.402;2022-11-15T09:14:51;123.23;;;43.57;;
13868;SDS011;7004;48.206;16.402;2022-11-15T09:17:17;120.10;;;44.60;;
13868;SDS011;7004;48.206;16.402;2022-11-15T09:19:43;127.20;;;43.33;;
13868;SDS011;7004;48.206;16.402;2022-11-15T09:22:10;125.60;;;46.33;;
13868;SDS011;7004;48.206;16.402;2022-11-15T09:24:36;119.27;;;43.70;;
13868;SDS011;7004;48.206;16.402;2022-11-15T09:27:02;108.23;;;43.07;;
13868;SDS011;7004;48.206;16.402;2022-11-15T09:29:30;120.90;;;43.63;;
13868;SDS011;7004;48.206;16.402;2022-11-15T09:31:56;109.00;;;43.10;;
13868;SDS011;7004;48.206;16.402;2022-11-15T09:34:22;118.50;;;43.27;;
13868;SDS011;7004;48.206;16.402;2022-11-15T09:36:48;120.70;;;44.17;;
13868;SDS011;7004;48.206;16.402;2022-11-15T09:39:14;113.60;;;41.40;;
13868;SDS011;7004;48.206;16.402;2022-11-15T09:49:35;114.60;;;41.97;;
13868;SDS011;7004;48.206;16.402;2022-11-15T09:52:01;100.83;;;41.70;;
13868;SDS011;7004;48.206;16.402;2022-11-15T09:54:30;118.60;;;43.73;;
13868;SDS011;7004;48.206;16.402;2022-11-15T09:57:11;114.63;;;42.50;;
13868;SDS011;7004;48.206;16.402;2022-11-15T09:59:58;121.23;;;42.30;;
13868;SDS011;7004;48.206;16.402;2022-11-15T10:05:27;129.53;;;43.07;;
13868;SDS011;7004;48.206;16.402;2022-11-15T10:11:00;111.90;;;43.40;;
13868;SDS011;7004;48.206;16.402;2022-11-15T10:13:37;117.83;;;43.20;;
13868;SDS011;7004;48.206;16.402;2022-11-15T10:24:26;124.53;;;44.13;;
13868;SDS011;7004;48.206;16.402;2022-11-15T10:26:59;118.23;;;41.90;;
13868;SDS011;7004;48.206;16.402;2022-11-15T10:29:26;118.70;;;43.10;;
13868;SDS011;7004;48.206;16.402;2022-11-15T10:31:52;109.27;;;41.47;;
13868;SDS011;7004;48.206;16.402;2022-11-15T10:34:19;99.43;;;40.07;;
13868;SDS011;7004;48.206;16.402;2022-11-15T10:36:55;101.57;;;39.53;;
13868;SDS011;7004;48.206;16.402;2022-11-15T10:39:26;115.93;;;42.47;;
13868;SDS011;7004;48.206;16.402;2022-11-15T10:41:53;109.63;;;41.77;;
13868;SDS011;7004;48.206;16.402;2022-11-15T10:44:24;108.77;;;39.90;;
13868;SDS011;7004;48.206;16.402;2022-11-15T10:51:54;110.33;;;38.90;;
13868;SDS011;7004;48.206;16.402;2022-11-15T10:54:42;106.73;;;39.00;;
13868;SDS011;7004;48.206;16.402;2022-11-15T10:57:14;120.83;;;47.17;;
13868;SDS011;7004;48.206;16.402;2022-11-15T10:59:45;122.67;;;43.03;;
13868;SDS011;7004;48.206;16.402;2022-11-15T11:02:29;116.90;;;43.97;;
13868;SDS011;7004;48.206;16.402;2022-11-15T11:05:50;114.83;;;42.93;;
13868;SDS011;7004;48.206;16.402;2022-11-15T11:08:04;125.30;;;44.53;;
13868;SDS011;7004;48.206;16.402;2022-11-15T11:10:52;116.70;;;43.23;;
13868;SDS011;7004;48.206;16.402;2022-11-15T11:13:26;112.60;;;41.40;;
13868;SDS011;7004;48.206;16.402;2022-11-15T11:16:14;105.57;;;42.83;;
13868;SDS011;7004;48.206;16.402;2022-11-15T11:24:44;104.50;;;43.13;;
13868;SDS011;7004;48.206;16.402;2022-11-15T11:33:33;96.00;;;40.27;;
13868;SDS011;7004;48.206;16.402;2022-11-15T11:42:18;90.40;;;37.13;;
13868;SDS011;7004;48.206;16.402;2022-11-15T11:45:14;90.03;;;38.37;;
13868;SDS011;7004;48.206;16.402;2022-11-15T11:48:13;91.97;;;38.23;;
13868;SDS011;7004;48.206;16.402;2022-11-15T11:51:01;99.23;;;38.07;;
13868;SDS011;7004;48.206;16.402;2022-11-15T11:53:57;88.93;;;36.87;;
13868;SDS011;7004;48.206;16.402;2022-11-15T11:56:37;83.73;;;36.20;;
13868;SDS011;7004;48.206;16.402;2022-11-15T12:01:57;87.17;;;37.13;;
13868;SDS011;7004;48.206;16.402;2022-11-15T12:05:09;87.80;;;36.37;;
13868;SDS011;7004;48.206;16.402;2022-11-15T12:13:50;98.83;;;41.23;;
13868;SDS011;7004;48.206;16.402;2022-11-15T12:16:27;96.87;;;41.33;;
13868;SDS011;7004;48.206;16.402;2022-11-15T12:18:56;104.13;;;41.73;;
13868;SDS011;7004;48.206;16.402;2022-11-15T12:24:01;100.03;;;42.17;;
13868;SDS011;7004;48.206;16.402;2022-11-15T12:26:48;93.30;;;41.07;;
13868;SDS011;7004;48.206;16.402;2022-11-15T12:29:26;95.03;;;41.03;;
13868;SDS011;7004;48.206;16.402;2022-11-15T12:32:25;97.67;;;41.40;;
13868;SDS011;7004;48.206;16.402;2022-11-15T12:34:58;103.40;;;41.63;;
13868;SDS011;7004;48.206;16.402;2022-11-15T12:37:33;90.13;;;39.67;;
13868;SDS011;7004;48.206;16.402;2022-11-15T12:42:38;92.77;;;39.10;;
13868;SDS011;7004;48.206;16.402;2022-11-15T12:45:31;83.30;;;40.13;;
13868;SDS011;7004;48.206;16.402;2022-11-15T12:58:40;89.90;;;41.37;;
13868;SDS011;7004;48.206;16.402;2022-11-15T13:06:45;91.77;;;42.47;;
13868;SDS011;7004;48.206;16.402;2022-11-15T13:12:01;101.27;;;42.60;;
13868;SDS011;7004;48.206;16.402;2022-11-15T13:22:40;77.97;;;38.30;;
13868;SDS011;7004;48.206;16.402;2022-11-15T13:28:20;72.13;;;37.13;;
13868;SDS011;7004;48.206;16.402;2022-11-15T13:31:17;66.53;;;36.47;;
13868;SDS011;7004;48.206;16.402;2022-11-15T13:33:53;71.83;;;36.07;;
13868;SDS011;7004;48.206;16.402;2022-11-15T13:36:29;66.30;;;36.77;;
13868;SDS011;7004;48.206;16.402;2022-11-15T13:39:05;68.90;;;38.37;;
13868;SDS011;7004;48.206;16.402;2022-11-15T13:41:53;70.83;;;37.53;;
13868;SDS011;7004;48.206;16.402;2022-11-15T13:44:20;66.57;;;38.77;;
13868;SDS011;7004;48.206;16.402;2022-11-15T13:46:59;62.70;;;35.57;;
13868;SDS011;7004;48.206;16.402;2022-11-15T13:49:46;63.63;;;38.00;;
13868;SDS011;7004;48.206;16.402;2022-11-15T13:52:13;62.43;;;38.37;;
13868;SDS011;7004;48.206;16.402;2022-11-15T13:57:30;58.80;;;37.23;;
13868;SDS011;7004;48.206;16.402;2022-11-15T14:03:18;50.87;;;32.80;;
13868;SDS011;7004;48.206;16.402;2022-11-15T14:06:13;55.57;;;34.03;;
13868;SDS011;7004;48.206;16.402;2022-11-15T14:11:27;55.20;;;34.13;;
13868;SDS011;7004;48.206;16.402;2022-11-15T14:24:37;48.97;;;32.03;;
13868;SDS011;7004;48.206;16.402;2022-11-15T14:29:51;55.93;;;33.03;;
13868;SDS011;7004;48.206;16.402;2022-11-15T14:32:20;51.87;;;31.50;;
13868;SDS011;7004;48.206;16.402;2022-11-15T14:34:58;53.93;;;32.97;;
13868;SDS011;7004;48.206;16.402;2022-11-15T14:37:27;54.90;;;35.37;;
13868;SDS011;7004;48.206;16.402;2022-11-15T14:40:03;63.40;;;36.33;;
13868;SDS011;7004;48.206;16.402;2022-11-15T14:42:31;58.20;;;37.73;;
13868;SDS011;7004;48.206;16.402;2022-11-15T14:44:57;61.20;;;38.47;;
13868;SDS011;7004;48.206;16.402;2022-11-15T14:47:24;66.97;;;40.90;;
13868;SDS011;7004;48.206;16.402;2022-11-15T14:49:50;66.60;;;39.53;;
13868;SDS011;7004;48.206;16.402;2022-11-15T14:54:55;78.97;;;43.53;;
13868;SDS011;7004;48.206;16.402;2022-11-15T14:57:23;69.67;;;40.23;;
13868;SDS011;7004;48.206;16.402;2022-11-15T14:59:49;74.97;;;42.97;;
13868;SDS011;7004;48.206;16.402;2022-11-15T15:02:21;75.27;;;41.57;;
13868;SDS011;7004;48.206;16.402;2022-11-15T15:04:50;73.67;;;43.00;;
13868;SDS011;7004;48.206;16.402;2022-11-15T15:07:18;74.70;;;41.73;;
13868;SDS011;7004;48.206;16.402;2022-11-15T15:09:45;78.93;;;42.20;;
13868;SDS011;7004;48.206;16.402;2022-11-15T15:12:20;76.17;;;43.47;;
13868;SDS011;7004;48.206;16.402;2022-11-15T15:14:49;70.73;;;43.33;;
13868;SDS011;7004;48.206;16.402;2022-11-15T15:17:17;78.93;;;40.43;;
13868;SDS011;7004;48.206;16.402;2022-11-15T15:19:43;71.17;;;41.37;;
13868;SDS011;7004;48.206;16.402;2022-11-15T15:22:14;71.33;;;41.77;;
13868;SDS011;7004;48.206;16.402;2022-11-15T15:24:46;73.17;;;42.27;;
13868;SDS011;7004;48.206;16.402;2022-11-15T15:27:13;72.07;;;41.40;;
13868;SDS011;7004;48.206;16.402;2022-11-15T15:29:39;67.87;;;41.10;;
13868;SDS011;7004;48.206;16.402;2022-11-15T15:32:06;69.83;;;41.23;;
13868;SDS011;7004;48.206;16.402;2022-11-15T15:34:33;74.23;;;42.70;;
13868;SDS011;7004;48.206;16.402;2022-11-15T15:37:17;74.97;;;42.23;;
13868;SDS011;7004;48.206;16.402;2022-11-15T15:39:54;69.90;;;41.23;;
13868;SDS011;7004;48.206;16.402;2022-11-15T15:42:22;71.80;;;42.73;;
13868;SDS011;7004;48.206;16.402;2022-11-15T15:44:49;70.60;;;40.43;;
13868;SDS011;7004;48.206;16.402;2022-11-15T15:47:18;73.63;;;40.60;;
13868;SDS011;7004;48.206;16.402;2022-11-15T15:49:48;79.40;;;41.73;;
13868;SDS011;7004;48.206;16.402;2022-11-15T15:52:16;74.60;;;41.87;;
13868;SDS011;7004;48.206;16.402;2022-11-15T15:54:42;76.63;;;44.17;;
13868;SDS011;7004;48.206;16.402;2022-11-15T15:57:10;73.30;;;41.67;;
13868;SDS011;7004;48.206;16.402;2022-11-15T15:59:39;67.40;;;40.67;;
13868;SDS011;7004;48.206;16.402;2022-11-15T16:02:05;79.43;;;44.40;;
13868;SDS011;7004;48.206;16.402;2022-11-15T16:04:36;74.43;;;41.37;;
13868;SDS011;7004;48.206;16.402;2022-11-15T16:07:05;72.63;;;41.37;;
13868;SDS011;7004;48.206;16.402;2022-11-15T16:09:42;69.63;;;40.50;;
13868;SDS011;7004;48.206;16.402;2022-11-15T16:12:28;69.50;;;38.47;;
13868;SDS011;7004;48.206;16.402;2022-11-15T16:15:03;67.17;;;37.90;;
13868;SDS011;7004;48.206;16.402;2022-11-15T16:17:33;73.87;;;39.97;;
13868;SDS011;7004;48.206;16.402;2022-11-15T16:20:05;71.33;;;38.13;;
13868;SDS011;7004;48.206;16.402;2022-11-15T16:22:32;63.00;;;37.73;;
13868;SDS011;7004;48.206;16.402;2022-11-15T16:24:58;69.57;;;38.93;;
13868;SDS011;7004;48.206;16.402;2022-11-15T16:27:24;67.03;;;37.87;;
13868;SDS011;7004;48.206;16.402;2022-11-15T16:29:50;70.87;;;39.47;;
13868;SDS011;7004;48.206;16.402;2022-11-15T16:32:16;68.23;;;38.23;;
13868;SDS011;7004;48.206;16.402;2022-11-15T16:34:42;61.83;;;36.17;;
13868;SDS011;7004;48.206;16.402;2022-11-15T16:37:42;60.53;;;35.30;;
13868;SDS011;7004;48.206;16.402;2022-11-15T16:40:01;61.57;;;35.13;;
13868;SDS011;7004;48.206;16.402;2022-11-15T16:42:28;62.50;;;34.53;;
13868;SDS011;7004;48.206;16.402;2022-11-15T16:44:54;64.47;;;35.60;;
13868;SDS011;7004;48.206;16.402;2022-11-15T16:47:20;62.67;;;34.93;;
13868;SDS011;7004;48.206;16.402;2022-11-15T16:49:47;59.23;;;33.97;;
13868;SDS011;7004;48.206;16.402;2022-11-15T16:52:13;59.03;;;33.57;;
13868;SDS011;7004;48.206;16.402;2022-11-15T16:54:39;61.87;;;34.43;;
13868;SDS011;7004;48.206;16.402;2022-11-15T16:57:07;59.20;;;33.70;;
13868;SDS011;7004;48.206;16.402;2022-11-15T16:59:35;57.30;;;32.00;;
13868;SDS011;7004;48.206;16.402;2022-11-15T17:02:02;55.80;;;32.17;;
13868;SDS011;7004;48.206;16.402;2022-11-15T17:04:28;58.73;;;32.77;;